Two Rivers, WI

7:11 AM CDT on September 02, 2014 (GMT -0500)
44th Street Two Rivers | Change Station
CLOSE
Current Station
Personal Weather Station
Location: Two Rivers, WI
Elevation: 607 ft
Nearby Weather Stations

Elev 607 ft 44.17 °N, 87.59 °W | Updated 9 seconds ago

Clear
Clear
56.8 °F
Feels Like 56.8 °F
N
0.0
Wind Variable Wind from West
Gusts 0.0 mph

Today
High -- | Low -- °F
--% Chance of Precip.
Yesterday
High -- | Low -- °F
Precip. -- in
6:14 AM 7:24 PM
Waxing Crescent, 51% visible
Pressure 29.92 in
Visibility 10.0 miles
Clouds Clear
Dew Point 54 °F
Humidity 90%
Rainfall 0.00 in
Snow Depth Not available.
UV 0 out of 12
Pollen 8.30 out of 12
Air Quality Not available.
Flu Activity Not available.
METAR KMTW 021156Z AUTO 25003KT 10SM CLR 16/15 A2986 RMK AO2 SLP130 70017 T01610150 10183 20156 53009

More Conditions Fewer Conditions

Pressure 29.92 in
Visibility 10.0 miles
Clouds Clear
Dew Point 54 °F
Humidity 90%
Rainfall 0.00 in
Snow Depth Not available.
UV 0 out of 12
Pollen 8.30 out of 12
Air Quality Not available.
Flu Activity Not available.
METAR KMTW 021156Z AUTO 25003KT 10SM CLR 16/15 A2986 RMK AO2 SLP130 70017 T01610150 10183 20156 53009

More Conditions Fewer Conditions

10-Day Weather Forecast

Almanac

Astronomy

Sep. 02, 2014 Rise Set
Actual Time 6:14 AM CDT 7:24 PM CDT
Civil Twilight 5:44 AM CDT 7:54 PM CDT
Nautical Twilight 5:09 AM CDT 8:29 PM CDT
Astronomical Twilight 4:31 AM CDT 9:07 PM CDT
Moon 2:13 PM CDT No Moon Set
Length of Visible Light 14h 09m
Length of Day
13h 10m
Tomorrow will be 2m 57s shorter.
Waxing Crescent, 51% of the Moon is Illuminated
Today
Waxing Crescent
Sep 8
Full
Sep 15
Last Quarter
Sep 24
New
Oct 1
First Quarter

Today's Extremes

State Highs State Lows

Community

WunderPhotos

Upload Photos

1,749,638 photos uploaded!

WunderBlogs® & News

By Dr. Jeff Masters
Director of Meteorology, Weather Underground
By Kari Strenfel
Meteorologist, Weather Underground
By Christopher C. Burt
Weather Historian, Weather Underground
September 2, 2014
September 2, 2014
September 2, 2014

Nearby

Snow Depth

Station Depth Elevation
No new snow has been reported.

Earthquake Activity

City Distance Mag. Time & Date
No recent earthquake activity has been reported nearby.
Minimum magnitude displayed is 2.5.

Coastal Water Temperatures

Place Temperature
Menominee, MI 70.0 °F

Nearby Weather Stations